createdAt,value
2023-03-17T00:00:59.405Z,79.25
2023-03-17T00:01:59.453Z,77.59
2023-03-17T00:02:59.386Z,76.56
2023-03-17T00:03:59.444Z,75.43
2023-03-17T00:04:59.360Z,77.59
2023-03-17T00:05:59.400Z,78.83
2023-03-17T00:06:59.359Z,77.28
2023-03-17T00:07:59.350Z,78.11
2023-03-17T00:08:59.319Z,76.87
2023-03-17T00:09:59.323Z,78.21
2023-03-17T00:10:59.311Z,77.80
2023-03-17T00:11:59.324Z,77.59
2023-03-17T00:12:59.275Z,81.00
2023-03-17T00:13:59.277Z,80.58
2023-03-17T00:14:59.269Z,79.97
2023-03-17T00:15:59.321Z,78.52
2023-03-17T00:16:59.249Z,78.94
2023-03-17T00:17:59.231Z,81.21
2023-03-17T00:18:59.232Z,79.04
2023-03-17T00:19:59.199Z,77.28
2023-03-17T00:20:59.236Z,76.77
2023-03-17T00:21:59.195Z,78.94
2023-03-17T00:22:59.184Z,82.34
2023-03-17T00:23:59.172Z,79.35
2023-03-17T00:24:59.159Z,78.94
2023-03-17T00:25:59.137Z,76.35
2023-03-17T00:26:59.170Z,80.48
2023-03-17T00:27:59.143Z,78.73
2023-03-17T00:28:59.185Z,76.87
2023-03-17T00:29:59.090Z,74.08
2023-03-17T00:30:59.247Z,76.35
2023-03-17T00:31:59.077Z,82.65
2023-03-17T00:32:59.137Z,78.42
2023-03-17T00:33:59.048Z,77.39
2023-03-17T00:34:59.069Z,76.25
2023-03-17T00:35:59.083Z,81.31
2023-03-17T00:36:59.029Z,80.58
2023-03-17T00:37:59.003Z,79.86
2023-03-17T00:38:59.010Z,81.31
2023-03-17T00:39:58.984Z,80.18
2023-03-17T00:40:59.020Z,82.96
2023-03-17T00:41:58.964Z,78.42
2023-03-17T00:42:58.970Z,82.24
2023-03-17T00:43:58.943Z,80.58
2023-03-17T00:44:58.953Z,79.76
2023-03-17T00:45:58.966Z,78.83
2023-03-17T00:46:58.994Z,80.58
2023-03-17T00:47:58.921Z,81.93
2023-03-17T00:48:58.908Z,79.97
2023-03-17T00:49:58.888Z,79.55
2023-03-17T00:50:58.883Z,79.04
2023-03-17T00:51:58.866Z,80.38
2023-03-17T00:52:58.898Z,76.15
2023-03-17T00:53:58.914Z,75.74
2023-03-17T00:54:58.828Z,79.35
2023-03-17T00:55:58.823Z,79.55
2023-03-17T00:56:58.816Z,78.31
2023-03-17T00:57:58.796Z,78.83
2023-03-17T00:58:58.802Z,80.38
2023-03-17T00:59:58.767Z,77.70
2023-03-17T01:00:58.837Z,74.19
2023-03-17T01:01:58.799Z,75.15
2023-03-17T01:02:58.758Z,78.35
2023-03-17T01:03:58.744Z,77.32
2023-03-17T01:05:05.768Z,78.25
2023-03-17T01:05:58.698Z,78.05
2023-03-17T01:06:58.709Z,75.46
2023-03-17T01:07:58.681Z,76.18
2023-03-17T01:08:58.698Z,75.36
2023-03-17T01:09:58.664Z,79.18
2023-03-17T01:10:58.664Z,74.63
2023-03-17T01:11:58.632Z,76.60
2023-03-17T01:12:58.660Z,79.28
2023-03-17T01:13:58.637Z,80.00
2023-03-17T01:14:58.610Z,78.97
2023-03-17T01:15:58.650Z,76.70
2023-03-17T01:16:58.600Z,75.15
2023-03-17T01:17:58.575Z,78.87
2023-03-17T01:18:58.627Z,77.94
2023-03-17T01:19:58.578Z,79.80
2023-03-17T01:20:58.564Z,75.98
2023-03-17T01:21:58.537Z,78.35
2023-03-17T01:22:58.546Z,80.11
2023-03-17T01:23:58.497Z,76.70
2023-03-17T01:24:58.524Z,76.18
2023-03-17T01:25:58.486Z,77.42
2023-03-17T01:26:58.487Z,79.90
2023-03-17T01:27:58.469Z,78.56
2023-03-17T01:28:58.482Z,78.14
2023-03-17T01:29:58.444Z,77.01
2023-03-17T01:30:58.485Z,77.73
2023-03-17T01:31:58.476Z,75.05
2023-03-17T01:32:58.486Z,76.18
2023-03-17T01:33:58.392Z,78.56
2023-03-17T01:34:58.425Z,76.70
2023-03-17T01:35:58.490Z,77.11
2023-03-17T01:36:58.368Z,76.08
2023-03-17T01:37:58.351Z,78.97
2023-03-17T01:38:58.369Z,78.35
2023-03-17T01:39:58.338Z,76.29
2023-03-17T01:40:58.341Z,80.73
2023-03-17T01:41:58.324Z,78.87
2023-03-17T01:42:58.335Z,78.97
2023-03-17T01:43:58.292Z,76.50
2023-03-17T01:44:58.315Z,76.39
2023-03-17T01:45:58.305Z,75.98
2023-03-17T01:46:58.277Z,78.66
2023-03-17T01:47:58.249Z,74.43
2023-03-17T01:48:58.260Z,80.62
2023-03-17T01:49:58.222Z,83.20
2023-03-17T01:50:58.272Z,81.86
2023-03-17T01:51:58.233Z,76.60
2023-03-17T01:52:58.214Z,82.17
2023-03-17T01:53:58.196Z,84.34
2023-03-17T01:54:58.190Z,80.93
2023-03-17T01:55:58.165Z,81.76
2023-03-17T01:56:58.185Z,79.38
2023-03-17T01:57:58.144Z,75.87
2023-03-17T01:58:58.159Z,76.50
2023-03-17T01:59:58.120Z,77.73
2023-03-17T02:00:58.156Z,75.46
2023-03-17T02:01:58.107Z,77.84
2023-03-17T02:02:58.127Z,77.22
2023-03-17T02:03:58.110Z,79.18
2023-03-17T02:04:58.084Z,78.14
2023-03-17T02:05:58.120Z,77.63
2023-03-17T02:06:58.899Z,77.25
2023-03-17T02:07:58.053Z,78.18
2023-03-17T02:08:58.039Z,81.59
2023-03-17T02:09:58.012Z,79.42
2023-03-17T02:10:58.029Z,78.28
2023-03-17T02:11:58.002Z,77.98
2023-03-17T02:12:57.994Z,75.19
2023-03-17T02:13:58.012Z,75.91
2023-03-17T02:14:57.974Z,79.01
2023-03-17T02:15:57.946Z,77.87
2023-03-17T02:16:57.980Z,75.60
2023-03-17T02:17:57.925Z,75.91
2023-03-17T02:18:57.944Z,77.15
2023-03-17T02:19:57.912Z,77.98
2023-03-17T02:20:57.916Z,78.49
2023-03-17T02:21:57.912Z,78.70
2023-03-17T02:22:57.878Z,78.49
2023-03-17T02:23:57.860Z,77.77
2023-03-17T02:24:57.883Z,76.84
2023-03-17T02:25:57.838Z,76.77
2023-03-17T02:26:57.841Z,76.87
2023-03-17T02:27:57.815Z,76.77
2023-03-17T02:28:57.822Z,77.39
2023-03-17T02:29:57.806Z,77.81
2023-03-17T07:00:56.294Z,82.48
2023-03-17T07:01:57.256Z,81.92
2023-03-17T07:02:57.195Z,83.89
2023-03-17T07:03:57.160Z,84.30
2023-03-17T07:04:57.228Z,82.23
2023-03-17T07:05:57.185Z,82.03
2023-03-17T07:06:57.166Z,81.92
2023-03-17T07:07:57.127Z,81.92
2023-03-17T07:08:57.126Z,81.20
2023-03-17T07:09:57.114Z,81.26
2023-03-17T07:10:57.103Z,81.57
2023-03-17T07:11:57.110Z,84.58
2023-03-17T07:12:57.089Z,81.68
2023-03-17T07:13:57.062Z,83.85
2023-03-17T07:14:57.076Z,81.26
2023-03-17T07:16:00.341Z,78.99
2023-03-17T07:16:57.059Z,79.40
2023-03-17T07:17:57.008Z,79.71
2023-03-17T07:18:57.027Z,81.88
2023-03-17T07:19:56.998Z,81.43
2023-03-17T07:20:57.028Z,80.50
2023-03-17T07:21:56.971Z,82.36
2023-03-17T07:22:56.977Z,81.84
2023-03-17T07:23:56.961Z,80.60
2023-03-17T07:24:56.971Z,80.08
2023-03-17T07:25:56.928Z,79.16
2023-03-17T07:26:56.976Z,79.05
2023-03-17T07:27:56.919Z,79.98
2023-03-17T07:28:56.938Z,81.23
2023-03-17T07:29:56.949Z,83.50
2023-03-17T07:30:56.905Z,81.84
2023-03-17T07:31:56.876Z,81.02
2023-03-17T07:32:56.935Z,80.81
2023-03-17T07:33:57.398Z,80.50
2023-03-17T07:34:56.868Z,78.60
2023-03-17T07:35:56.924Z,77.77
2023-03-17T07:36:56.845Z,79.05
2023-03-17T07:37:56.819Z,80.05
2023-03-17T07:38:56.826Z,79.84
2023-03-17T07:39:56.800Z,79.43
2023-03-17T07:40:56.842Z,79.33
2023-03-17T07:41:56.777Z,79.74
2023-03-17T07:42:56.777Z,80.15
2023-03-17T07:43:56.773Z,79.02
2023-03-17T07:44:56.751Z,78.81
2023-03-17T07:45:56.720Z,79.19
2023-03-17T07:46:56.744Z,79.29
2023-03-17T07:47:56.701Z,79.60
2023-03-17T07:48:56.737Z,78.05
2023-03-17T07:49:56.663Z,78.46
2023-03-17T07:50:56.668Z,80.32
2023-03-17T07:51:56.684Z,77.84
2023-03-17T07:52:56.676Z,79.08
2023-03-17T07:53:56.645Z,78.98
2023-03-17T07:54:56.675Z,77.74
2023-03-17T07:55:56.632Z,77.39
2023-03-17T07:56:56.645Z,76.36
2023-03-17T07:57:56.606Z,76.98
2023-03-17T07:58:56.588Z,78.94
2023-03-17T07:59:56.595Z,78.22
2023-03-17T08:00:56.593Z,77.60
2023-03-17T08:01:56.549Z,77.08
2023-03-17T08:03:09.259Z,78.53
2023-03-17T08:03:56.758Z,78.74
2023-03-17T08:04:56.518Z,79.22
2023-03-17T08:05:56.529Z,78.39
2023-03-17T08:06:56.502Z,77.15
2023-03-17T08:07:56.475Z,76.84
2023-03-17T08:08:56.542Z,77.98
2023-03-17T08:09:56.449Z,78.28
2023-03-17T08:10:56.482Z,77.87
2023-03-17T08:11:56.434Z,78.28
2023-03-17T08:12:56.475Z,77.73
2023-03-17T08:13:56.408Z,76.60
2023-03-17T08:14:56.442Z,78.14
2023-03-17T08:15:56.413Z,76.90
2023-03-17T08:16:56.501Z,74.84
2023-03-17T08:17:56.375Z,74.43
2023-03-17T08:18:56.366Z,75.26
2023-03-17T08:19:56.353Z,74.43
2023-03-17T08:20:56.375Z,76.50
2023-03-17T08:21:56.331Z,75.22
2023-03-17T08:22:56.511Z,76.25
2023-03-17T08:23:56.333Z,74.71
2023-03-17T08:24:56.351Z,78.21
2023-03-17T08:25:56.326Z,77.59
2023-03-17T08:26:56.935Z,73.36
2023-03-17T08:27:56.288Z,75.43
2023-03-17T08:28:56.263Z,76.25
2023-03-17T08:29:56.269Z,73.98
2023-03-17T08:30:56.317Z,73.98
2023-03-17T08:31:56.315Z,75.01
2023-03-17T08:32:56.243Z,76.94
2023-03-17T08:33:56.246Z,78.59
2023-03-17T08:34:56.204Z,75.91
2023-03-17T08:35:56.227Z,75.60
2023-03-17T08:36:56.165Z,72.92
2023-03-17T08:37:56.338Z,73.33
2023-03-17T08:38:56.197Z,73.22
2023-03-17T08:39:56.159Z,71.55
2023-03-17T08:40:56.127Z,74.02
2023-03-17T08:41:56.122Z,74.12
2023-03-17T08:42:56.153Z,72.58
2023-03-17T08:43:56.175Z,72.06
2023-03-17T08:44:56.135Z,70.41
2023-03-17T08:45:56.111Z,71.13
2023-03-17T08:46:56.062Z,73.50
2023-03-17T08:47:56.114Z,72.75
2023-03-17T08:48:56.058Z,71.61
2023-03-17T08:49:56.078Z,72.03
2023-03-17T08:50:56.207Z,70.89
2023-03-17T08:51:56.042Z,71.30
2023-03-17T08:52:56.002Z,69.76
2023-03-17T08:53:56.020Z,71.00
2023-03-17T08:54:56.004Z,70.24
2023-03-17T08:55:56.265Z,72.09
2023-03-17T08:56:55.954Z,69.73
2023-03-17T08:57:55.968Z,72.92
2023-03-17T08:58:55.970Z,74.74
2023-03-17T08:59:55.973Z,71.03
2023-03-17T09:00:56.036Z,70.52
2023-03-17T09:01:56.064Z,70.83
2023-03-17T09:02:55.947Z,69.15
2023-03-17T09:03:55.912Z,69.56
2023-03-17T09:04:55.858Z,68.32
2023-03-17T09:05:55.885Z,67.81
2023-03-17T09:07:03.241Z,69.35
2023-03-17T09:07:55.927Z,68.40
2023-03-17T09:08:55.826Z,69.32
2023-03-17T09:09:55.831Z,70.45
2023-03-17T09:10:55.797Z,70.45
2023-03-17T09:11:55.815Z,70.11
2023-03-17T09:12:55.807Z,68.88
2023-03-17T09:13:55.820Z,68.67
2023-03-17T09:14:55.787Z,68.37
2023-03-17T09:15:55.799Z,70.59
2023-03-17T09:16:55.741Z,70.90
2023-03-17T09:17:55.779Z,68.64
2023-03-17T09:18:55.760Z,70.79
2023-03-17T09:19:55.762Z,68.02
2023-03-17T09:20:55.702Z,67.17
2023-03-17T09:21:55.703Z,67.58
2023-03-17T09:22:55.680Z,66.35
2023-03-17T09:23:55.681Z,65.94
2023-03-17T09:24:55.774Z,67.55
2023-03-17T09:25:55.657Z,65.80
2023-03-17T09:26:55.676Z,65.50
2023-03-17T09:27:56.658Z,66.01
2023-03-17T09:28:55.605Z,65.29
2023-03-17T09:29:55.740Z,67.83
2023-03-17T09:30:56.897Z,67.72
2023-03-17T09:31:55.597Z,66.28
2023-03-17T09:32:55.643Z,66.80
2023-03-17T09:33:55.570Z,66.19
2023-03-17T09:34:55.569Z,67.79
2023-03-17T09:35:55.565Z,64.61
2023-03-17T09:36:55.597Z,63.28
2023-03-17T09:37:55.538Z,66.97
2023-03-17T09:38:55.501Z,65.33
2023-03-17T09:39:55.520Z,65.10
2023-03-17T09:40:55.488Z,67.35
2023-03-17T09:41:55.553Z,63.46
2023-03-17T09:42:55.492Z,62.54
2023-03-17T09:43:55.459Z,63.02
2023-03-17T09:44:55.450Z,66.19
2023-03-17T09:45:55.446Z,62.61
2023-03-17T09:46:55.577Z,62.51
2023-03-17T09:47:55.470Z,62.19
2023-03-17T09:48:55.435Z,63.60
2023-03-17T09:49:55.422Z,63.50
2023-03-17T09:50:55.389Z,61.45
2023-03-17T09:51:55.368Z,61.25
2023-03-17T09:52:55.381Z,64.94
2023-03-17T09:53:55.355Z,65.21
2023-03-17T09:54:55.339Z,65.21
2023-03-17T09:55:55.325Z,65.72
2023-03-17T09:56:55.358Z,62.24
2023-03-17T09:57:55.313Z,64.18
2023-03-17T09:58:55.279Z,64.70
2023-03-17T09:59:55.314Z,63.06
2023-03-17T10:00:55.264Z,62.73
2023-03-17T10:01:55.307Z,64.57
2023-03-17T10:02:55.236Z,62.93
2023-03-17T10:03:55.244Z,64.67
2023-03-17T10:04:55.301Z,62.42
2023-03-17T10:05:55.242Z,61.09
2023-03-17T10:06:55.234Z,63.21
2023-03-17T10:07:55.201Z,65.36
2023-03-17T10:08:55.190Z,66.58
2023-03-17T10:09:55.178Z,67.50
2023-03-17T10:10:55.172Z,64.74
2023-03-17T10:11:55.167Z,63.31
2023-03-17T10:12:55.158Z,62.90
2023-03-17T10:13:55.128Z,62.90
2023-03-17T10:14:55.111Z,64.00
2023-03-17T10:15:55.164Z,62.36
2023-03-17T10:16:55.101Z,62.26
2023-03-17T10:17:55.112Z,61.03
2023-03-17T10:18:55.066Z,62.87
2023-03-17T10:19:55.091Z,62.36
2023-03-17T10:20:55.047Z,62.54
2023-03-17T10:21:55.053Z,66.01
2023-03-17T10:22:55.024Z,63.76
2023-03-17T10:23:55.054Z,66.01
2023-03-17T10:24:55.005Z,67.95
2023-03-17T10:25:55.029Z,61.92
2023-03-17T10:26:55.871Z,65.60
2023-03-17T10:27:55.000Z,64.75
2023-03-17T10:28:54.973Z,64.96
2023-03-17T10:29:54.980Z,61.58
2023-03-17T10:30:54.960Z,63.12
2023-03-17T10:31:58.123Z,63.83
2023-03-17T10:32:54.978Z,64.55
2023-03-17T10:33:54.926Z,63.12
2023-03-17T10:34:54.892Z,60.36
2023-03-17T10:35:54.946Z,60.33
2023-03-17T10:36:54.888Z,61.76
2023-03-17T10:38:08.021Z,65.64
2023-03-17T10:38:54.877Z,63.60
2023-03-17T10:39:54.887Z,60.33
2023-03-17T10:40:54.838Z,64.62
2023-03-17T10:41:54.882Z,61.87
2023-03-17T10:42:54.827Z,60.30
2023-03-17T10:43:54.834Z,59.18
2023-03-17T10:44:54.819Z,59.28
2023-03-17T10:45:54.832Z,57.86
2023-03-17T10:46:54.868Z,58.98
2023-03-17T10:47:54.785Z,60.10
2023-03-17T10:48:54.758Z,61.63
2023-03-17T10:49:54.755Z,58.47
2023-03-17T10:50:54.725Z,60.69
2023-03-17T10:51:54.763Z,64.25
2023-03-17T10:52:54.719Z,62.42
2023-03-17T10:53:54.698Z,62.11
2023-03-17T10:54:54.704Z,63.44
2023-03-17T10:55:54.718Z,59.97
2023-03-17T10:56:54.652Z,60.45
2023-03-17T10:57:54.680Z,61.57
2023-03-17T10:58:54.660Z,64.32
2023-03-17T10:59:55.463Z,60.66
2023-03-17T11:00:54.672Z,60.66
2023-03-17T11:01:54.612Z,61.37
2023-03-17T11:02:54.619Z,61.16
2023-03-17T11:03:54.688Z,63.28
2023-03-17T11:04:54.562Z,60.42
2023-03-17T11:05:54.567Z,59.71
2023-03-17T11:06:54.557Z,59.41
2023-03-17T11:07:54.577Z,60.02
2023-03-17T11:08:54.526Z,59.00
2023-03-17T11:09:54.529Z,63.79
2023-03-17T11:10:54.508Z,58.08
2023-03-17T11:11:54.518Z,59.38
2023-03-17T11:12:54.504Z,59.99
2023-03-17T11:13:54.497Z,59.78
2023-03-17T11:14:54.457Z,61.72
2023-03-17T11:15:54.465Z,57.04
2023-03-17T11:16:54.469Z,57.44
2023-03-17T11:17:54.443Z,57.44
2023-03-17T11:18:54.432Z,57.85
2023-03-17T11:19:54.469Z,57.75
2023-03-17T11:20:54.401Z,60.68
2023-03-17T11:21:54.412Z,57.82
2023-03-17T11:22:54.381Z,56.50
2023-03-17T11:23:54.384Z,64.75
2023-03-17T11:24:54.400Z,64.03
2023-03-17T11:25:54.371Z,59.25
2023-03-17T11:26:54.360Z,57.42
2023-03-17T11:27:54.331Z,59.93
2023-03-17T11:28:54.316Z,56.68
2023-03-17T11:29:54.346Z,57.69
2023-03-17T11:30:54.327Z,60.03
2023-03-17T11:31:54.375Z,61.56
2023-03-17T11:32:54.287Z,58.20
2023-03-17T11:33:54.270Z,56.68
2023-03-17T11:34:54.253Z,58.69
2023-03-17T11:35:54.285Z,60.92
2023-03-17T11:36:56.485Z,58.28
2023-03-17T11:37:54.231Z,57.87
2023-03-17T11:38:54.195Z,57.97
2023-03-17T11:39:54.225Z,59.19
2023-03-17T11:40:54.182Z,59.06
2023-03-17T11:41:54.195Z,58.96
2023-03-17T11:42:55.369Z,54.59
2023-03-17T11:43:54.216Z,56.62
2023-03-17T11:44:54.135Z,60.08
2023-03-17T11:45:54.314Z,61.71
2023-03-17T11:46:54.164Z,59.16
2023-03-17T11:47:54.146Z,57.03
2023-03-17T11:48:54.147Z,54.36
2023-03-17T11:49:54.106Z,57.00
2023-03-17T11:50:54.078Z,59.54
2023-03-17T11:51:54.106Z,55.58
2023-03-17T11:52:54.074Z,60.66
2023-03-17T11:53:54.054Z,58.63
2023-03-17T11:54:55.988Z,56.29
2023-03-17T11:55:54.027Z,57.41
2023-03-17T11:56:54.007Z,58.02
2023-03-17T11:57:54.006Z,62.18
2023-03-17T11:58:54.019Z,57.89
2023-03-17T11:59:53.982Z,54.13
2023-03-17T12:00:53.975Z,56.98
2023-03-17T12:01:53.974Z,54.13
2023-03-17T12:02:53.939Z,55.55
2023-03-17T12:03:54.139Z,56.87
2023-03-17T12:04:53.949Z,57.76
2023-03-17T12:05:53.930Z,57.35
2023-03-17T12:06:55.416Z,58.78
2023-03-17T12:07:53.887Z,55.73
2023-03-17T12:08:53.871Z,58.47
2023-03-17T12:09:53.897Z,58.06
2023-03-17T12:10:53.842Z,57.35
2023-03-17T12:11:53.861Z,57.25
2023-03-17T12:12:53.837Z,54.72
2023-03-17T12:13:53.834Z,57.86
2023-03-17T12:14:53.805Z,54.69
2023-03-17T12:15:53.863Z,55.20
2023-03-17T12:16:53.822Z,58.45
2023-03-17T12:17:53.779Z,57.64
2023-03-17T12:18:53.793Z,54.18
2023-03-17T12:19:53.759Z,53.98
2023-03-17T12:20:53.754Z,56.01
2023-03-17T12:21:53.763Z,55.07
2023-03-17T12:22:55.805Z,54.36
2023-03-17T12:23:53.726Z,55.47
2023-03-17T12:24:53.713Z,53.75
2023-03-17T12:25:53.706Z,51.42
2023-03-17T12:26:53.745Z,51.62
2023-03-17T12:27:53.710Z,53.34
2023-03-17T12:28:55.194Z,50.00
2023-03-17T12:29:53.672Z,52.53
2023-03-17T12:30:53.663Z,54.16
2023-03-17T12:31:53.631Z,59.84
2023-03-17T12:32:53.738Z,59.74
2023-03-17T12:33:53.658Z,56.97
2023-03-17T12:34:55.012Z,53.25
2023-03-17T12:35:53.612Z,54.74
2023-03-17T12:36:53.652Z,53.93
2023-03-17T12:37:53.568Z,57.28
2023-03-17T12:38:53.550Z,60.35
2023-03-17T12:39:53.545Z,56.70
2023-03-17T12:40:53.529Z,54.57
2023-03-17T12:41:53.559Z,53.12
2023-03-17T12:42:53.495Z,53.93
2023-03-17T12:43:53.510Z,56.57
2023-03-17T12:44:53.483Z,55.15
2023-03-17T12:45:54.358Z,62.24
2023-03-17T12:46:53.526Z,54.84
2023-03-17T12:47:53.438Z,54.44
2023-03-17T12:48:53.461Z,53.12
2023-03-17T12:49:53.418Z,57.07
2023-03-17T12:50:53.434Z,52.61
2023-03-17T12:51:53.407Z,53.22
2023-03-17T12:52:53.522Z,51.90
2023-03-17T12:53:53.373Z,51.29
2023-03-17T12:54:53.380Z,50.38
2023-03-17T12:55:53.347Z,54.41
2023-03-17T12:56:54.063Z,51.50
2023-03-17T12:57:53.337Z,57.15
2023-03-17T12:58:53.396Z,52.71
2023-03-17T12:59:53.309Z,52.71
2023-03-17T13:00:53.322Z,50.86
2023-03-17T13:01:53.334Z,55.12
2023-03-17T13:02:53.339Z,56.13
2023-03-17T13:03:53.263Z,56.23
2023-03-17T13:04:53.298Z,55.32
2023-03-17T13:05:53.240Z,52.59
2023-03-17T13:06:53.248Z,50.15
2023-03-17T13:07:53.346Z,53.30
2023-03-17T13:08:53.225Z,56.44
2023-03-17T13:09:53.222Z,54.31
2023-03-17T13:10:53.236Z,52.48
2023-03-17T13:11:53.178Z,52.28
2023-03-17T13:12:53.180Z,51.67
2023-03-17T13:13:53.163Z,54.82
2023-03-17T13:14:53.153Z,53.70
2023-03-17T13:15:53.181Z,55.52
2023-03-17T13:16:53.154Z,53.19
2023-03-17T13:17:53.129Z,54.00
2023-03-17T13:18:53.119Z,55.43
2023-03-17T13:19:53.093Z,58.97
2023-03-17T13:20:53.112Z,55.52
2023-03-17T13:21:53.097Z,56.64
2023-03-17T13:22:53.068Z,57.68
2023-03-17T13:23:53.046Z,57.86
2023-03-17T13:24:53.063Z,59.10
2023-03-17T13:25:53.026Z,60.31
2023-03-17T13:26:54.895Z,58.80
2023-03-17T13:27:53.023Z,55.45
2023-03-17T13:28:53.012Z,58.09
2023-03-17T13:29:52.990Z,56.26
2023-03-17T13:30:52.984Z,57.81
2023-03-17T13:31:53.034Z,59.10
2023-03-17T13:32:53.085Z,56.67
2023-03-17T13:33:52.946Z,59.00
2023-03-17T13:34:52.973Z,56.29
2023-03-17T13:35:52.988Z,58.62
2023-03-17T13:36:52.915Z,56.70
2023-03-17T13:37:52.910Z,58.42
2023-03-17T13:39:15.011Z,59.03
2023-03-17T13:39:52.877Z,58.72
2023-03-17T13:40:52.903Z,58.01
2023-03-17T13:41:52.862Z,55.35
2023-03-17T13:42:52.865Z,56.87
2023-03-17T13:43:52.853Z,61.53
2023-03-17T13:44:52.849Z,59.20
2023-03-17T13:45:52.806Z,58.90
2023-03-17T13:46:52.875Z,58.49
2023-03-17T13:47:52.833Z,57.50
2023-03-17T13:48:52.815Z,60.35
2023-03-17T13:49:52.773Z,59.63
2023-03-17T13:50:52.785Z,58.92
2023-03-17T13:51:59.594Z,58.62
2023-03-17T13:52:52.773Z,55.98
2023-03-17T13:53:52.726Z,56.99
2023-03-17T13:54:52.762Z,57.28
2023-03-17T13:55:52.755Z,55.96
2023-03-17T13:56:52.709Z,59.30
2023-03-17T13:57:52.686Z,57.37
2023-03-17T13:58:52.734Z,54.53
2023-03-17T13:59:52.684Z,57.58
2023-03-17T14:00:52.738Z,58.59
2023-03-17T14:01:52.646Z,59.41
2023-03-17T14:02:52.659Z,57.71
2023-03-17T14:03:52.630Z,59.43
2023-03-17T14:04:52.667Z,58.62
2023-03-17T14:05:52.654Z,58.22
2023-03-17T14:06:52.595Z,62.27
2023-03-17T14:07:52.585Z,58.82
2023-03-17T14:08:52.574Z,55.96
2023-03-17T14:09:52.566Z,56.57
2023-03-17T14:10:52.557Z,59.81
2023-03-17T14:11:52.538Z,57.07
2023-03-17T14:12:52.562Z,60.82
2023-03-17T14:13:52.531Z,60.93
2023-03-17T14:14:52.538Z,56.67
2023-03-17T14:15:52.530Z,57.37
2023-03-17T14:16:52.491Z,59.41
2023-03-17T14:17:52.468Z,58.09
2023-03-17T14:18:52.469Z,57.37
2023-03-17T14:19:52.454Z,57.28
2023-03-17T14:20:52.439Z,55.25
2023-03-17T14:21:52.484Z,57.35
2023-03-17T14:22:52.422Z,56.84
2023-03-17T14:23:52.411Z,57.65
2023-03-17T14:24:52.396Z,56.64
2023-03-17T14:25:52.380Z,60.59
2023-03-17T14:26:52.397Z,57.53
2023-03-17T14:27:52.378Z,59.05
2023-03-17T14:28:52.360Z,60.06
2023-03-17T14:29:52.436Z,54.79
2023-03-17T14:30:52.333Z,56.10
2023-03-17T14:31:52.364Z,54.89
2023-03-17T14:32:52.359Z,54.28
2023-03-17T14:33:52.311Z,53.47
2023-03-17T14:34:52.298Z,57.12
2023-03-17T14:35:52.342Z,53.67
2023-03-17T14:36:52.290Z,59.65
2023-03-17T14:37:52.277Z,54.59
2023-03-17T14:38:52.274Z,56.10
2023-03-17T14:39:52.235Z,53.78
2023-03-17T14:40:52.229Z,56.51
2023-03-17T14:41:52.201Z,57.12
2023-03-17T14:42:52.198Z,52.46
2023-03-17T14:43:52.261Z,55.60
2023-03-17T14:44:52.175Z,55.90
2023-03-17T14:45:52.231Z,56.10
2023-03-17T14:46:52.159Z,56.92
2023-03-17T14:47:52.150Z,54.79
2023-03-17T14:48:52.177Z,53.98
2023-03-17T14:49:52.109Z,55.40
2023-03-17T14:50:52.118Z,60.26
2023-03-17T14:51:52.089Z,57.02
2023-03-17T14:52:52.134Z,54.49
2023-03-17T14:53:52.081Z,54.69
2023-03-17T14:54:52.116Z,56.31
2023-03-17T14:55:52.070Z,56.10
2023-03-17T14:56:52.073Z,56.21
2023-03-17T14:57:52.032Z,57.22
2023-03-17T14:58:52.093Z,54.99
2023-03-17T14:59:52.025Z,53.67
2023-03-17T15:00:52.055Z,54.79
2023-03-17T15:01:51.995Z,53.47
2023-03-17T15:02:51.993Z,53.37
2023-03-17T15:03:51.973Z,56.61
2023-03-17T15:04:51.989Z,55.30
2023-03-17T15:05:51.941Z,54.18
2023-03-17T15:06:51.943Z,52.15
2023-03-17T15:07:51.951Z,54.59
2023-03-17T15:08:51.920Z,56.10
2023-03-17T15:09:51.893Z,55.19
2023-03-17T15:10:51.971Z,52.97
2023-03-17T15:11:51.878Z,53.17
2023-03-17T15:12:51.885Z,61.17
2023-03-17T15:13:51.867Z,56.61
2023-03-17T15:14:51.864Z,59.34
2023-03-17T15:15:51.823Z,59.45
2023-03-17T15:16:51.956Z,56.31
2023-03-17T15:17:51.836Z,55.10
2023-03-17T15:18:51.823Z,60.66
2023-03-17T15:19:51.780Z,60.86
2023-03-17T15:20:51.806Z,59.65
2023-03-17T15:21:51.782Z,56.54
2023-03-17T15:22:51.804Z,53.91
2023-03-17T15:23:51.755Z,52.79
2023-03-17T15:24:51.748Z,58.23
2023-03-17T15:25:51.737Z,57.75
2023-03-17T15:26:51.735Z,56.64
2023-03-17T15:27:51.714Z,56.74
2023-03-17T15:28:51.717Z,55.60
2023-03-17T15:29:51.677Z,59.38
2023-03-17T15:30:52.046Z,58.47
2023-03-17T15:31:51.708Z,58.67
2023-03-17T15:32:51.724Z,57.65
2023-03-17T15:33:51.647Z,58.26
2023-03-17T15:34:51.664Z,61.30
2023-03-17T15:35:51.689Z,59.68
2023-03-17T15:36:51.639Z,56.95
2023-03-17T15:37:51.597Z,55.73
2023-03-17T15:38:51.634Z,56.13
2023-03-17T15:39:51.589Z,56.34
2023-03-17T15:40:51.602Z,55.43
2023-03-17T15:41:51.561Z,58.97
2023-03-17T15:42:51.591Z,57.75
2023-03-17T15:43:51.532Z,59.68
2023-03-17T15:44:51.560Z,59.17
2023-03-17T15:45:51.555Z,58.56
2023-03-17T15:46:51.551Z,55.93
2023-03-17T15:47:51.512Z,55.12
2023-03-17T15:48:51.500Z,57.55
2023-03-17T15:49:51.477Z,60.39
2023-03-17T15:50:51.469Z,60.69
2023-03-17T15:51:51.473Z,59.17
2023-03-17T15:52:51.459Z,58.16
2023-03-17T15:53:51.448Z,55.83
2023-03-17T15:54:51.418Z,60.82
2023-03-17T15:55:51.397Z,59.10
2023-03-17T15:56:51.421Z,58.09
2023-03-17T15:57:55.145Z,57.78
2023-03-17T15:58:51.415Z,59.70
2023-03-17T15:59:51.343Z,58.69
2023-03-17T16:00:51.342Z,59.91
2023-03-17T16:01:51.343Z,60.72
2023-03-17T16:02:51.352Z,59.70
2023-03-17T16:03:51.358Z,58.80
2023-03-17T16:04:51.313Z,60.82
2023-03-17T16:05:51.278Z,61.05
2023-03-17T16:06:51.285Z,61.87
2023-03-17T16:07:51.262Z,62.78
2023-03-17T16:08:51.271Z,59.63
2023-03-17T16:09:51.266Z,60.24
2023-03-17T16:10:51.254Z,57.81
2023-03-17T16:11:51.215Z,57.10
2023-03-17T16:12:51.226Z,59.43
2023-03-17T16:13:51.203Z,57.20
2023-03-17T16:14:51.237Z,57.50
2023-03-17T16:15:51.231Z,60.78
2023-03-17T16:16:51.207Z,60.88
2023-03-17T16:17:51.150Z,55.60
2023-03-17T16:18:51.167Z,56.31
2023-03-17T16:19:51.135Z,55.91
2023-03-17T16:20:51.214Z,54.39
2023-03-17T16:21:51.107Z,53.67
2023-03-17T16:22:51.114Z,53.98
2023-03-17T16:23:51.093Z,54.08
2023-03-17T16:24:51.101Z,54.18
2023-03-17T16:25:51.723Z,56.52
2023-03-17T16:26:51.090Z,58.75
2023-03-17T16:27:51.058Z,59.05
2023-03-17T16:28:51.046Z,54.39
2023-03-17T16:29:51.025Z,54.49
2023-03-17T16:30:51.046Z,55.10
2023-03-17T16:31:51.076Z,54.49
2023-03-17T16:32:51.069Z,56.52
2023-03-17T16:33:50.990Z,54.59
2023-03-17T16:34:51.007Z,55.32
2023-03-17T16:35:51.000Z,57.86
2023-03-17T16:36:51.024Z,57.66
2023-03-17T16:37:50.946Z,59.99
2023-03-17T16:38:50.954Z,61.21
2023-03-17T16:39:50.925Z,60.60
2023-03-17T16:40:50.926Z,55.32
2023-03-17T16:41:50.892Z,55.32
2023-03-17T16:42:50.938Z,58.47
2023-03-17T16:43:50.887Z,54.82
2023-03-17T16:44:50.977Z,53.80
2023-03-17T16:45:50.862Z,53.60
2023-03-17T16:46:50.886Z,54.51
2023-03-17T16:47:50.841Z,54.51
2023-03-17T16:48:50.858Z,54.00
2023-03-17T16:49:50.809Z,53.91
2023-03-17T16:50:50.824Z,54.24
2023-03-17T16:51:50.912Z,56.57
2023-03-17T16:52:50.805Z,54.84
2023-03-17T16:53:50.772Z,54.54
2023-03-17T16:54:50.812Z,54.64
2023-03-17T16:55:50.759Z,54.74
2023-03-17T16:56:50.788Z,54.94
2023-03-17T16:57:50.773Z,54.74
2023-03-17T16:58:50.754Z,54.44
2023-03-17T16:59:50.702Z,54.44
2023-03-17T17:00:50.714Z,55.25
2023-03-17T17:01:50.724Z,55.07
2023-03-17T17:02:50.729Z,54.44
2023-03-17T17:03:50.689Z,54.44
2023-03-17T17:04:50.650Z,55.07
2023-03-17T17:05:50.652Z,55.07
2023-03-17T17:06:50.645Z,54.87
2023-03-17T17:07:50.645Z,57.00
2023-03-17T17:08:50.656Z,58.22
2023-03-17T17:09:50.657Z,57.41
2023-03-17T17:10:50.584Z,56.09
2023-03-17T17:11:50.577Z,56.29
2023-03-17T17:12:50.571Z,56.80
2023-03-17T17:13:50.564Z,57.51
2023-03-17T17:14:50.530Z,60.46
2023-03-17T17:15:50.631Z,62.08
2023-03-17T17:16:50.513Z,61.91
2023-03-17T17:17:50.527Z,60.79
2023-03-17T17:18:50.547Z,62.32
2023-03-17T17:19:50.525Z,60.08
2023-03-17T17:20:50.512Z,59.37
2023-03-17T17:21:50.502Z,62.01
2023-03-17T17:22:50.483Z,61.10